Time;durP1;ratioP1;P1;durP2;ratioP2;P2;SDS_P1;SDS_P2;PMS_P1;PMS_P2;Temp;Humidity;BMP_temperature;BMP_pressure;BME280_temperature;BME280_humidity;BME280_pressure;Samples;Min_cycle;Max_cycle;Signal;HPM_P1;HPM_P2
2024/01/06 00:01:28;;;;;;;22.73;10.47;;;;;;;7.05;100.00;63670.31;5073819;28;20208;-54
2024/01/06 00:03:54;;;;;;;23.50;12.47;;;;;;;6.93;100.00;63657.25;5074221;28;20184;-58
2024/01/06 00:06:19;;;;;;;28.73;14.17;;;;;;;6.62;100.00;63627.03;5039586;28;20215;-54
2024/01/06 00:08:45;;;;;;;26.10;14.03;;;;;;;6.39;100.00;63596.94;5074100;28;20200;-55
2024/01/06 00:11:10;;;;;;;20.20;12.53;;;;;;;6.71;100.00;63633.78;5074180;28;20527;-55
2024/01/06 00:13:36;;;;;;;25.67;13.27;;;;;;;7.23;100.00;63692.47;5073493;28;20216;-54
2024/01/06 00:16:02;;;;;;;30.13;13.23;;;;;;;7.12;100.00;63678.50;5039024;28;20647;-54
2024/01/06 00:18:27;;;;;;;27.13;13.47;;;;;;;7.19;100.00;63688.09;5073760;28;20213;-55
2024/01/06 00:20:53;;;;;;;26.67;13.83;;;;;;;6.62;100.00;63627.03;5073648;28;20575;-54
2024/01/06 00:23:18;;;;;;;28.90;13.67;;;;;;;7.14;100.00;63680.69;5073872;28;20262;-56
2024/01/06 00:25:44;;;;;;;32.40;14.63;;;;;;;7.24;100.00;63694.09;5073732;28;20185;-57
2024/01/06 00:28:09;;;;;;;32.17;16.53;;;;;;;6.95;100.00;63661.91;5073502;28;20655;-54
2024/01/06 00:30:35;;;;;;;29.57;14.30;;;;;;;6.66;100.00;63628.34;5073570;28;20544;-55
2024/01/06 00:33:00;;;;;;;36.73;16.30;;;;;;;6.38;100.00;63600.84;5073848;28;20239;-53
2024/01/06 00:35:26;;;;;;;36.47;17.07;;;;;;;6.63;100.00;63627.56;5055602;28;21230;-54
2024/01/06 00:37:52;;;;;;;34.93;17.00;;;;;;;6.74;100.00;63637.59;5073699;28;20690;-55
2024/01/06 00:40:19;;;;;;;36.07;17.63;;;;;;;6.95;100.00;63662.44;5074019;28;20185;-54
2024/01/06 00:42:45;;;;;;;35.83;15.40;;;;;;;7.26;100.00;63695.72;5073428;28;20209;-56
2024/01/06 00:45:11;;;;;;;29.27;14.93;;;;;;;7.31;100.00;63698.69;5073583;28;20192;-54
2024/01/06 00:47:36;;;;;;;29.30;15.97;;;;;;;7.47;100.00;63719.16;5055494;28;20213;-54
2024/01/06 00:50:02;;;;;;;36.53;15.43;;;;;;;7.65;100.00;63738.28;5055463;28;20238;-55
2024/01/06 00:52:28;;;;;;;36.07;16.07;;;;;;;7.69;100.00;63742.66;5073501;28;20205;-53
2024/01/06 00:54:54;;;;;;;30.10;15.40;;;;;;;7.71;100.00;63741.78;5073233;28;20212;-55
2024/01/06 00:57:23;;;;;;;26.57;15.40;;;;;;;7.69;100.00;63742.66;5073020;28;20236;-54
2024/01/06 00:59:49;;;;;;;32.80;15.90;;;;;;;7.62;100.00;63732.50;5073264;28;20190;-57
2024/01/06 01:02:15;;;;;;;26.53;15.37;;;;;;;7.65;100.00;63738.28;5073388;28;20578;-53
2024/01/06 01:04:40;;;;;;;30.20;14.60;;;;;;;7.77;100.00;63748.88;5072301;28;20188;-54
2024/01/06 01:07:06;;;;;;;27.67;14.23;;;;;;;7.73;100.00;63743.94;5073453;28;20205;-54
2024/01/06 01:09:31;;;;;;;30.53;15.57;;;;;;;7.54;100.00;63724.31;5055330;28;20220;-54
2024/01/06 01:11:57;;;;;;;25.00;14.27;;;;;;;7.64;100.00;63737.19;5073064;28;20313;-60
2024/01/06 01:14:22;;;;;;;34.43;16.80;;;;;;;7.58;100.00;63728.13;5055333;28;20575;-57
2024/01/06 01:16:48;;;;;;;30.90;15.13;;;;;;;7.75;100.00;63744.19;5073334;28;20224;-53
2024/01/06 01:19:14;;;;;;;30.30;14.37;;;;;;;7.65;100.00;63733.25;5055112;28;20221;-53
2024/01/06 01:21:39;;;;;;;29.80;14.50;;;;;;;7.70;100.00;63743.72;5073125;28;20192;-54
2024/01/06 01:24:05;;;;;;;30.53;14.07;;;;;;;7.64;100.00;63732.16;5072970;28;20731;-53
2024/01/06 01:26:30;;;;;;;30.93;14.67;;;;;;;7.75;100.00;63748.66;5072874;28;20193;-56
2024/01/06 01:28:56;;;;;;;26.43;12.27;;;;;;;7.70;100.00;63740.66;5072837;28;20227;-53
2024/01/06 01:31:22;;;;;;;34.43;18.73;;;;;;;7.69;100.00;63742.09;5054711;28;20634;-55
2024/01/06 01:33:47;;;;;;;29.47;16.03;;;;;;;7.24;100.00;63694.09;5072558;28;20708;-52
2024/01/06 01:36:13;;;;;;;25.80;12.83;;;;;;;6.97;100.00;63664.09;5072556;28;20267;-56
2024/01/06 01:38:38;;;;;;;34.43;17.23;;;;;;;7.21;100.00;63690.28;5072590;28;20221;-55
2024/01/06 01:41:04;;;;;;;24.60;13.53;;;;;;;7.36;100.00;63706.63;5072581;28;20224;-55
2024/01/06 01:43:30;;;;;;;27.63;13.20;;;;;;;7.48;100.00;63720.28;5054576;28;20220;-56
2024/01/06 01:45:56;;;;;;;28.43;13.70;;;;;;;7.49;100.00;63721.34;5072736;28;20625;-55
2024/01/06 01:48:23;;;;;;;27.93;14.60;;;;;;;7.52;100.00;63724.09;5072447;28;20761;-55
2024/01/06 01:50:50;;;;;;;27.33;16.07;;;;;;;6.51;100.00;63615.03;5072519;28;20189;-55
2024/01/06 01:53:16;;;;;;;29.50;14.73;;;;;;;6.27;100.00;63588.88;5054341;28;20667;-56
2024/01/06 01:55:43;;;;;;;28.57;14.97;;;;;;;6.51;100.00;63615.03;5072400;28;20232;-55
2024/01/06 01:58:10;;;;;;;33.13;15.30;;;;;;;6.83;100.00;63646.84;5072094;28;20316;-54
2024/01/06 02:00:36;;;;;;;27.87;14.20;;;;;;;6.90;100.00;63654.50;5072341;28;20714;-57
2024/01/06 02:03:04;;;;;;;30.10;14.20;;;;;;;6.98;100.00;63665.72;5072665;28;20666;-56
2024/01/06 02:05:30;;;;;;;26.63;14.80;;;;;;;7.19;100.00;63686.13;5054399;28;20201;-55
2024/01/06 02:07:56;;;;;;;26.50;15.27;;;;;;;7.50;100.00;63719.94;5072518;28;20220;-54
2024/01/06 02:10:22;;;;;;;28.97;14.63;;;;;;;7.45;100.00;63714.47;5054418;28;20196;-54
2024/01/06 02:12:48;;;;;;;31.33;16.60;;;;;;;7.62;100.00;63735.00;5072096;28;20766;-58
2024/01/06 02:15:14;;;;;;;27.20;15.70;;;;;;;7.47;100.00;63716.13;5072140;28;20220;-58
2024/01/06 02:17:40;;;;;;;24.97;13.67;;;;;;;7.43;100.00;63711.78;5037373;28;20225;-55
2024/01/06 02:20:08;;;;;;;30.50;15.83;;;;;;;7.60;100.00;63730.31;5054318;28;20200;-56
2024/01/06 02:22:36;;;;;;;30.50;16.23;;;;;;;7.59;100.00;63729.75;5071883;28;20760;-54
2024/01/06 02:25:07;;;;;;;42.80;20.90;;;;;;;7.42;100.00;63713.72;5037497;28;20189;-54
2024/01/06 02:27:33;;;;;;;40.40;22.33;;;;;;;7.11;100.00;63679.38;5054154;28;20359;-54
2024/01/06 02:29:58;;;;;;;31.40;16.97;;;;;;;7.01;100.00;63666.50;5072037;28;20181;-54
2024/01/06 02:32:24;;;;;;;20.83;12.13;;;;;;;6.95;100.00;63661.91;5079424;22;20229;-53
2024/01/06 02:34:49;;;;;;;16.83;9.80;;;;;;;6.94;100.00;63658.31;5071950;28;20752;-54
2024/01/06 02:37:15;;;;;;;15.30;9.80;;;;;;;7.21;100.00;63690.81;5071742;28;20657;-54
2024/01/06 02:39:40;;;;;;;19.93;11.93;;;;;;;7.29;100.00;63699.53;5071797;28;20573;-53
2024/01/06 02:42:06;;;;;;;15.97;9.20;;;;;;;7.20;100.00;63686.66;5071506;28;20216;-53
2024/01/06 02:44:31;;;;;;;18.07;8.83;;;;;;;7.02;100.00;63667.03;5071791;28;20180;-54
2024/01/06 02:46:57;;;;;;;12.67;7.20;;;;;;;6.94;100.00;63661.38;5071850;28;20240;-54
2024/01/06 02:49:23;;;;;;;14.67;7.27;;;;;;;6.86;100.00;63647.09;5053870;28;20280;-54
2024/01/06 02:51:49;;;;;;;15.60;8.00;;;;;;;6.85;100.00;63651.00;5071354;28;20228;-54
2024/01/06 02:54:14;;;;;;;15.07;7.50;;;;;;;7.07;100.00;63672.50;5071495;28;20709;-54
2024/01/06 02:56:40;;;;;;;12.87;7.00;;;;;;;7.07;100.00;63675.53;5071513;28;20231;-53
2024/01/06 02:59:05;;;;;;;10.97;6.80;;;;;;;7.18;100.00;63684.50;5071326;28;20289;-53
2024/01/06 03:01:32;;;;;;;14.00;7.40;;;;;;;7.26;100.00;63695.72;5071583;28;20193;-54
2024/01/06 03:03:57;;;;;;;22.30;9.97;;;;;;;7.20;100.00;63689.72;5053287;28;20196;-55
2024/01/06 03:06:23;;;;;;;13.37;7.77;;;;;;;7.13;100.00;63681.56;5071601;28;20670;-54
2024/01/06 03:08:48;;;;;;;11.50;6.97;;;;;;;7.06;100.00;63668.91;5053268;28;20208;-58
2024/01/06 03:11:14;;;;;;;14.20;8.13;;;;;;;7.27;100.00;63694.84;5071417;28;20223;-58
2024/01/06 03:13:40;;;;;;;18.47;9.33;;;;;;;7.12;100.00;63681.00;5071286;28;20689;-56
2024/01/06 03:16:05;;;;;;;21.27;9.37;;;;;;;7.01;100.00;63669.00;5071341;28;20550;-55
2024/01/06 03:18:31;;;;;;;17.00;7.93;;;;;;;6.93;100.00;63660.28;5071171;28;20649;-56
2024/01/06 03:20:57;;;;;;;16.17;8.07;;;;;;;6.95;100.00;63659.41;5071087;28;20200;-55
2024/01/06 03:23:22;;;;;;;12.97;8.80;;;;;;;7.13;100.00;63682.06;5071190;28;20533;-57
2024/01/06 03:25:48;;;;;;;12.57;7.63;;;;;;;7.13;100.00;63679.03;5071148;28;20199;-56
2024/01/06 03:28:13;;;;;;;12.27;7.00;;;;;;;7.30;100.00;63697.56;5070482;28;20214;-56
2024/01/06 03:30:39;;;;;;;10.97;6.43;;;;;;;7.23;100.00;63692.47;5053009;28;20635;-55
2024/01/06 03:33:06;;;;;;;10.37;5.37;;;;;;;7.14;100.00;63682.63;5070941;28;20293;-55
2024/01/06 03:35:31;;;;;;;8.47;4.63;;;;;;;7.10;100.00;63678.25;5071234;28;20196;-55
2024/01/06 03:37:57;;;;;;;8.87;5.30;;;;;;;7.04;100.00;63671.72;5071112;28;20673;-55
2024/01/06 03:40:23;;;;;;;11.07;5.40;;;;;;;7.15;100.00;63683.72;5070962;28;20275;-56
2024/01/06 03:42:49;;;;;;;12.17;5.27;;;;;;;7.23;100.00;63692.47;5071057;28;20219;-55
2024/01/06 03:45:14;;;;;;;8.20;4.07;;;;;;;7.23;100.00;63692.47;5070888;28;20204;-55
2024/01/06 03:47:40;;;;;;;10.10;5.10;;;;;;;7.21;100.00;63690.81;5070868;28;20244;-54
2024/01/06 03:50:06;;;;;;;8.20;4.73;;;;;;;7.20;100.00;63689.19;5070694;28;20224;-54
2024/01/06 03:52:31;;;;;;;8.37;5.47;;;;;;;7.35;100.00;63703.56;5070936;28;20220;-53
2024/01/06 03:54:57;;;;;;;9.60;4.90;;;;;;;7.66;100.00;63734.34;5053018;28;20188;-55
2024/01/06 03:57:22;;;;;;;6.57;4.37;;;;;;;7.58;100.00;63728.69;5071185;28;20217;-56
2024/01/06 03:59:48;;;;;;;10.03;4.43;;;;;;;7.60;100.00;63730.84;5070747;28;20189;-57
2024/01/06 04:02:13;;;;;;;10.00;4.60;;;;;;;7.41;100.00;63710.13;5070775;28;20213;-55
2024/01/06 04:04:39;;;;;;;7.13;3.93;;;;;;;7.20;100.00;63689.72;5070832;28;20192;-56
2024/01/06 04:07:06;;;;;;;8.40;4.10;;;;;;;7.37;100.00;63705.75;5070757;28;20258;-56
2024/01/06 04:09:32;;;;;;;6.23;3.90;;;;;;;7.61;100.00;63734.44;5070660;28;20189;-55
2024/01/06 04:11:57;;;;;;;10.23;5.20;;;;;;;7.66;99.82;63739.38;5052280;28;20705;-55
2024/01/06 04:14:23;;;;;;;9.83;5.77;;;;;;;7.59;100.00;63729.22;5070585;28;20224;-54
2024/01/06 04:16:57;;;;;;;8.53;4.77;;;;;;;7.38;100.00;63706.31;5070546;28;20209;-54
2024/01/06 04:19:22;;;;;;;8.40;4.50;;;;;;;7.34;100.00;63701.94;5070450;28;20252;-56
2024/01/06 04:21:48;;;;;;;11.43;5.37;;;;;;;7.27;100.00;63696.81;5070576;28;20610;-55
2024/01/06 04:24:13;;;;;;;8.13;4.67;;;;;;;7.32;100.00;63704.78;5070273;28;20659;-54
2024/01/06 04:26:39;;;;;;;6.80;4.33;;;;;;;7.17;100.00;63685.91;5070041;28;20700;-53
2024/01/06 04:29:05;;;;;;;7.27;4.70;;;;;;;7.14;100.00;63680.13;5070182;28;20264;-55
2024/01/06 04:31:30;;;;;;;6.17;4.10;;;;;;;6.92;100.00;63656.69;5070381;28;20254;-55
2024/01/06 04:33:56;;;;;;;6.83;4.30;;;;;;;6.70;100.00;63635.75;5070363;28;20184;-57
2024/01/06 04:36:22;;;;;;;7.77;4.30;;;;;;;6.71;100.00;63633.78;5070037;28;20543;-55
2024/01/06 04:38:48;;;;;;;7.73;4.70;;;;;;;6.78;100.00;63644.47;5070530;28;20289;-55
2024/01/06 04:41:14;;;;;;;5.87;4.07;;;;;;;6.86;100.00;63652.09;5073772;28;20651;-54
2024/01/06 04:43:39;;;;;;;3.87;3.23;;;;;;;6.87;100.00;63655.69;5038949;28;20649;-54
2024/01/06 04:46:05;;;;;;;7.30;3.70;;;;;;;6.94;100.00;63661.38;5073528;28;20192;-55
2024/01/06 04:48:31;;;;;;;9.13;4.10;;;;;;;7.00;100.00;63667.91;5073510;28;20212;-54
2024/01/06 04:50:56;;;;;;;9.30;4.67;;;;;;;7.21;100.00;63690.81;5073545;28;20671;-54
2024/01/06 04:53:22;;;;;;;7.97;4.33;;;;;;;7.12;100.00;63680.44;5055369;28;20710;-54
2024/01/06 04:55:47;;;;;;;6.13;3.67;;;;;;;6.93;100.00;63659.75;5073465;28;20192;-55
2024/01/06 04:58:13;;;;;;;7.17;4.73;;;;;;;6.99;100.00;63668.78;5073178;28;20647;-54
2024/01/06 05:00:38;;;;;;;8.23;4.23;;;;;;;6.81;100.00;63647.19;5073300;28;20220;-55
2024/01/06 05:03:05;;;;;;;7.93;4.10;;;;;;;6.97;100.00;63664.09;5073518;28;20216;-54
2024/01/06 05:05:31;;;;;;;7.70;4.77;;;;;;;6.77;100.00;63642.81;5073307;28;20203;-54
2024/01/06 05:07:57;;;;;;;8.83;4.43;;;;;;;6.42;100.00;63607.19;5073374;28;20248;-55
2024/01/06 05:10:23;;;;;;;8.37;4.93;;;;;;;6.20;100.00;63578.72;5073198;28;20233;-55
2024/01/06 05:12:48;;;;;;;8.80;5.80;;;;;;;6.46;100.00;63607.09;5073192;28;20224;-55
2024/01/06 05:15:14;;;;;;;9.57;4.70;;;;;;;6.78;100.00;63643.94;5073152;28;20188;-55
2024/01/06 05:17:40;;;;;;;9.20;5.03;;;;;;;6.67;100.00;63629.97;5054810;28;20285;-55
2024/01/06 05:20:06;;;;;;;9.60;5.67;;;;;;;6.59;100.00;63623.75;5073005;28;20189;-55
2024/01/06 05:22:32;;;;;;;9.23;5.13;;;;;;;6.64;100.00;63629.22;5073081;28;20212;-55
2024/01/06 05:24:57;;;;;;;10.10;5.13;;;;;;;6.65;100.00;63630.28;5072915;28;20192;-55
2024/01/06 05:27:23;;;;;;;10.13;5.47;;;;;;;6.60;100.00;63624.31;5073210;28;20252;-55
2024/01/06 05:29:49;;;;;;;7.23;4.83;;;;;;;6.49;100.00;63609.78;5073256;28;20192;-54
2024/01/06 05:32:17;;;;;;;7.17;4.87;;;;;;;6.54;100.00;63615.81;5054804;28;20254;-53
2024/01/06 05:34:44;;;;;;;8.33;5.57;;;;;;;6.46;100.00;63607.09;5073048;28;20192;-53
2024/01/06 05:37:09;;;;;;;8.47;4.90;;;;;;;6.73;100.00;63633.44;5073006;28;20209;-54
2024/01/06 05:39:38;;;;;;;8.47;5.30;;;;;;;6.70;100.00;63632.69;5072818;28;20307;-54
2024/01/06 05:42:05;;;;;;;8.50;4.80;;;;;;;6.87;100.00;63653.19;5072609;28;20212;-53
2024/01/06 05:44:30;;;;;;;11.07;5.27;;;;;;;6.75;100.00;63638.69;5072731;28;20188;-54
2024/01/06 05:46:56;;;;;;;8.70;5.53;;;;;;;6.61;100.00;63622.88;5072741;28;20691;-54
2024/01/06 05:49:23;;;;;;;7.03;5.07;;;;;;;6.65;100.00;63630.28;5072615;28;20266;-53
2024/01/06 05:51:49;;;;;;;7.33;5.10;;;;;;;6.80;100.00;63646.09;5054343;28;20213;-53
2024/01/06 05:54:15;;;;;;;7.33;4.33;;;;;;;6.76;100.00;63642.28;5072514;28;20227;-54
2024/01/06 05:56:40;;;;;;;10.60;4.27;;;;;;;6.56;100.00;63620.50;5072518;28;20707;-54
2024/01/06 05:59:06;;;;;;;7.47;3.53;;;;;;;6.14;100.00;63574.16;5072257;28;20649;-54
2024/01/06 06:01:32;;;;;;;11.23;4.60;;;;;;;6.11;100.00;63571.44;5072300;28;20200;-54
2024/01/06 06:03:57;;;;;;;6.10;3.57;;;;;;;6.16;100.00;63576.88;5072344;28;20246;-54
2024/01/06 06:06:23;;;;;;;5.23;3.57;;;;;;;6.29;100.00;63593.56;5072326;28;20196;-54
2024/01/06 06:08:48;;;;;;;6.13;3.03;;;;;;;6.23;100.00;63583.97;5054248;28;20698;-54
2024/01/06 06:11:14;;;;;;;4.03;2.43;;;;;;;6.10;100.00;63567.84;5072223;28;20591;-58
2024/01/06 06:13:41;;;;;;;5.23;3.13;;;;;;;6.14;100.00;63577.19;5072078;28;20657;-54
2024/01/06 06:16:09;;;;;;;5.53;3.10;;;;;;;6.35;100.00;63594.53;5072163;28;20197;-53
2024/01/06 06:18:35;;;;;;;5.27;2.97;;;;;;;6.46;100.00;63606.53;5053927;28;20213;-53
2024/01/06 06:21:07;;;;;;;6.40;3.40;;;;;;;6.42;100.00;63605.22;5072061;28;20544;-54
2024/01/06 06:23:33;;;;;;;6.60;3.87;;;;;;;6.53;100.00;63617.22;5071985;28;20208;-54
2024/01/06 06:25:59;;;;;;;12.30;4.57;;;;;;;6.39;100.00;63596.41;5053968;28;20221;-55
2024/01/06 06:28:25;;;;;;;6.13;3.80;;;;;;;6.54;100.00;63617.75;5071827;28;20196;-54
2024/01/06 06:30:51;;;;;;;8.43;3.53;;;;;;;6.50;100.00;63613.94;5071658;28;20674;-53
2024/01/06 06:33:17;;;;;;;8.27;3.63;;;;;;;6.53;100.00;63614.72;5053847;28;20282;-54
2024/01/06 06:35:42;;;;;;;6.10;3.47;;;;;;;6.81;100.00;63647.19;5053817;28;20214;-55
2024/01/06 06:38:08;;;;;;;9.83;4.10;;;;;;;6.82;100.00;63648.28;5071886;28;20226;-56
2024/01/06 06:40:33;;;;;;;11.90;5.03;;;;;;;6.78;100.00;63643.94;5071719;28;20263;-56
2024/01/06 06:42:59;;;;;;;8.67;4.27;;;;;;;6.83;100.00;63649.38;5061200;22;20232;-55
2024/01/06 06:45:25;;;;;;;12.27;4.70;;;;;;;6.95;100.00;63659.41;5071423;28;20620;-54
2024/01/06 06:47:50;;;;;;;9.80;4.40;;;;;;;7.00;100.00;63669.88;5071263;28;20690;-55
2024/01/06 06:50:20;;;;;;;12.47;4.73;;;;;;;6.94;100.00;63658.31;5053658;28;20185;-55
2024/01/06 06:52:46;;;;;;;7.23;3.80;;;;;;;6.88;100.00;63654.28;5053406;28;20729;-56
2024/01/06 06:55:12;;;;;;;7.00;3.60;;;;;;;6.64;100.00;63629.22;5071631;28;20185;-55
2024/01/06 06:57:38;;;;;;;4.73;3.07;;;;;;;6.78;100.00;63643.94;5071432;28;20295;-55
2024/01/06 07:00:07;;;;;;;6.63;3.07;;;;;;;6.78;100.00;63641.97;5071304;28;20191;-55
2024/01/06 07:02:33;;;;;;;10.13;3.53;;;;;;;6.79;100.00;63643.06;5070539;28;20271;-55
2024/01/06 07:04:59;;;;;;;4.80;3.27;;;;;;;6.78;100.00;63641.41;5071117;28;20181;-58
2024/01/06 07:07:24;;;;;;;4.97;3.47;;;;;;;6.86;100.00;63652.66;5071481;28;20231;-54
2024/01/06 07:09:50;;;;;;;12.73;3.80;;;;;;;6.80;100.00;63643.59;5071164;28;20263;-55
2024/01/06 07:12:15;;;;;;;6.10;3.93;;;;;;;6.79;100.00;63642.50;5071446;28;20220;-55
2024/01/06 07:14:41;;;;;;;9.97;4.87;;;;;;;6.90;100.00;63656.47;5071405;28;20181;-57
2024/01/06 07:17:08;;;;;;;7.90;4.33;;;;;;;6.91;100.00;63657.56;5078756;22;20239;-55
2024/01/06 07:19:34;;;;;;;7.63;3.80;;;;;;;6.89;100.00;63652.88;5071131;28;20216;-55
2024/01/06 07:22:00;;;;;;;6.27;4.57;;;;;;;7.05;100.00;63670.31;5071031;28;20217;-55
2024/01/06 07:24:26;;;;;;;7.97;4.07;;;;;;;7.18;100.00;63684.50;5071102;28;20268;-55
2024/01/06 07:26:52;;;;;;;7.63;4.57;;;;;;;7.14;100.00;63683.19;5070685;28;20226;-55
2024/01/06 07:29:18;;;;;;;10.73;5.80;;;;;;;6.66;100.00;63628.88;5053018;28;20598;-55
2024/01/06 07:31:45;;;;;;;10.93;6.40;;;;;;;6.38;100.00;63598.34;5070883;28;20193;-55
2024/01/06 07:34:10;;;;;;;14.63;6.63;;;;;;;6.72;100.00;63637.94;5071030;28;20245;-55
2024/01/06 07:36:36;;;;;;;9.60;5.93;;;;;;;6.72;100.00;63637.38;5070828;28;20264;-56
2024/01/06 07:39:02;;;;;;;12.80;6.63;;;;;;;6.83;100.00;63651.34;5070884;28;20293;-57
2024/01/06 07:41:30;;;;;;;12.67;6.17;;;;;;;7.16;100.00;63682.84;5052608;28;20201;-55
2024/01/06 07:43:56;;;;;;;12.57;5.13;;;;;;;7.18;100.00;63685.03;5070644;28;20193;-55
2024/01/06 07:46:22;;;;;;;10.63;5.00;;;;;;;7.31;100.00;63698.69;5069585;28;20181;-56
2024/01/06 07:48:47;;;;;;;29.30;15.20;;;;;;;7.28;100.00;63695.41;5052534;28;20270;-55
2024/01/06 07:51:13;;;;;;;8.80;6.37;;;;;;;7.45;100.00;63714.47;5070916;28;20212;-55
2024/01/06 07:53:39;;;;;;;10.10;6.07;;;;;;;7.53;100.00;63725.19;5070919;28;20683;-58
2024/01/06 07:56:05;;;;;;;12.20;6.57;;;;;;;7.43;100.00;63714.28;5070503;28;20188;-61
2024/01/06 07:58:32;;;;;;;10.03;5.20;;;;;;;7.40;100.00;63711.00;5070423;28;20207;-58
2024/01/06 08:00:58;;;;;;;9.53;5.10;;;;;;;7.73;100.00;63746.47;5070583;28;20621;-54
2024/01/06 08:03:24;;;;;;;7.97;5.13;;;;;;;7.36;100.00;63704.13;5070576;28;20205;-54
2024/01/06 08:05:50;;;;;;;12.17;4.40;;;;;;;7.13;100.00;63681.56;5070548;28;20184;-54
2024/01/06 08:08:16;;;;;;;10.87;4.90;;;;;;;7.27;100.00;63697.34;5070296;28;20246;-53
2024/01/06 08:10:43;;;;;;;10.40;4.83;;;;;;;7.39;100.00;63707.94;5070385;28;20280;-54
2024/01/06 08:13:08;;;;;;;6.53;4.50;;;;;;;7.50;100.00;63719.41;5071714;28;20205;-53
2024/01/06 08:15:34;;;;;;;5.97;3.97;;;;;;;7.53;100.00;63725.72;5074029;28;20619;-54
2024/01/06 08:17:59;;;;;;;10.80;3.83;;;;;;;7.66;99.89;63736.84;5073754;28;20663;-54
2024/01/06 08:20:25;;;;;;;12.87;4.53;;;;;;;7.36;100.00;63706.63;5055906;28;20688;-54
2024/01/06 08:22:50;;;;;;;11.73;4.53;;;;;;;7.81;100.00;63753.22;5073767;28;20204;-59
2024/01/06 08:25:17;;;;;;;7.70;4.13;;;;;;;7.56;100.00;63729.00;5073267;28;20185;-54
2024/01/06 08:27:43;;;;;;;14.93;4.57;;;;;;;7.97;100.00;63770.69;5073644;28;20208;-54
2024/01/06 08:30:09;;;;;;;17.20;4.23;;;;;;;7.53;100.00;63725.19;5073710;28;20181;-55
2024/01/06 08:32:35;;;;;;;9.53;3.83;;;;;;;7.94;100.00;63769.91;5073922;28;20253;-53
2024/01/06 08:35:00;;;;;;;12.73;4.03;;;;;;;8.06;99.07;63783.03;5055656;28;20698;-54
2024/01/06 08:37:26;;;;;;;12.50;4.10;;;;;;;8.21;99.34;63794.41;5073535;28;20573;-53
2024/01/06 08:39:51;;;;;;;8.80;3.67;;;;;;;8.23;97.86;63801.03;5073480;28;20242;-54
2024/01/06 08:42:17;;;;;;;8.87;3.43;;;;;;;8.47;97.89;63827.28;5073605;28;20220;-55
2024/01/06 08:44:43;;;;;;;9.07;3.57;;;;;;;9.06;100.00;63891.75;5055951;28;20193;-53
2024/01/06 08:47:10;;;;;;;7.03;3.03;;;;;;;9.36;100.00;63923.44;5073906;28;20277;-54
2024/01/06 08:49:35;;;;;;;4.53;2.70;;;;;;;9.28;90.34;63912.72;5073567;28;20280;-54
2024/01/06 08:52:01;;;;;;;10.77;3.43;;;;;;;9.40;89.63;63928.34;5055111;28;20262;-54
2024/01/06 08:54:26;;;;;;;4.57;2.90;;;;;;;9.63;89.06;63953.50;5073480;28;20538;-55
2024/01/06 08:56:52;;;;;;;6.73;3.87;;;;;;;9.93;87.94;63986.31;5073487;28;20220;-55
2024/01/06 08:59:18;;;;;;;9.00;4.27;;;;;;;10.09;85.54;64001.31;5055301;28;20224;-54
2024/01/06 09:01:43;;;;;;;15.50;4.60;;;;;;;10.36;85.02;64032.28;5073181;28;20712;-55
2024/01/06 09:04:11;;;;;;;16.20;6.27;;;;;;;10.61;83.17;64057.13;5073162;28;20196;-55
2024/01/06 09:06:36;;;;;;;11.97;5.63;;;;;;;10.56;83.71;64049.69;5072428;28;20188;-57
2024/01/06 09:09:02;;;;;;;13.13;5.50;;;;;;;10.63;81.83;64059.88;5055101;28;20576;-56
2024/01/06 09:11:27;;;;;;;12.87;5.07;;;;;;;10.54;81.78;64052.00;5052657;28;20280;-56
2024/01/06 09:13:53;;;;;;;24.97;8.73;;;;;;;10.53;82.88;64048.38;5072003;28;20184;-55
2024/01/06 09:16:19;;;;;;;21.10;9.50;;;;;;;10.29;84.65;64025.19;5071931;28;20207;-53
2024/01/06 09:18:45;;;;;;;19.93;8.87;;;;;;;10.39;84.52;64033.06;5072672;28;20228;-54
2024/01/06 09:21:10;;;;;;;16.90;7.77;;;;;;;10.26;85.35;64018.84;5073307;28;20711;-54
2024/01/06 09:23:37;;;;;;;23.53;9.80;;;;;;;10.40;86.23;64034.16;5073109;28;20208;-53
2024/01/06 09:26:03;;;;;;;24.53;11.00;;;;;;;10.15;88.22;64009.88;5072289;28;20196;-55
2024/01/06 09:28:28;;;;;;;28.23;12.53;;;;;;;10.13;89.20;64005.16;5071921;28;20209;-55
2024/01/06 09:30:55;;;;;;;33.83;16.77;;;;;;;9.96;90.52;63987.09;5072859;28;20239;-56
2024/01/06 09:33:24;;;;;;;28.77;15.47;;;;;;;9.77;91.38;63968.81;5072896;28;20217;-59
2024/01/06 09:35:50;;;;;;;30.20;17.13;;;;;;;9.23;93.89;63910.31;5052861;28;20617;-55
2024/01/06 09:38:17;;;;;;;31.60;17.10;;;;;;;9.64;92.83;63949.56;5072396;28;20277;-55
2024/01/06 09:40:46;;;;;;;32.20;16.03;;;;;;;9.46;95.75;63929.88;5072361;28;20197;-54
2024/01/06 09:43:12;;;;;;;36.33;16.40;;;;;;;9.22;95.34;63909.22;5072579;28;20205;-56
2024/01/06 09:45:40;;;;;;;39.00;14.00;;;;;;;9.40;95.41;63925.28;5072632;28;20200;-55
2024/01/06 09:48:18;;;;;;;32.10;15.53;;;;;;;9.27;97.00;63911.66;5054777;28;20224;-56
2024/01/06 09:50:46;;;;;;;30.80;15.03;;;;;;;9.01;99.07;63883.22;5072621;28;20219;-55
2024/01/06 09:53:13;;;;;;;34.33;15.40;;;;;;;9.11;97.76;63899.19;5071299;28;20432;-55
2024/01/06 09:55:40;;;;;;;24.90;14.30;;;;;;;8.84;98.92;63864.63;5053085;28;20196;-55
2024/01/06 09:58:06;;;;;;;28.93;15.27;;;;;;;8.90;100.00;63869.22;5072339;28;20294;-57
2024/01/06 10:00:32;;;;;;;34.63;15.43;;;;;;;8.99;99.28;63881.56;5072349;28;20674;-55
2024/01/06 10:02:57;;;;;;;28.23;14.53;;;;;;;9.00;100.00;63882.69;5054518;28;20205;-54
2024/01/06 10:05:23;;;;;;;30.10;14.70;;;;;;;8.97;100.00;63878.84;5054181;28;20633;-56
2024/01/06 10:07:49;;;;;;;29.67;15.47;;;;;;;9.26;98.96;63916.13;5054399;28;20228;-55
2024/01/06 10:10:15;;;;;;;33.00;14.67;;;;;;;9.24;97.18;63908.91;5072284;28;20271;-55
2024/01/06 10:12:42;;;;;;;30.97;14.90;;;;;;;9.36;96.69;63923.97;5072470;28;20279;-56
2024/01/06 10:15:13;;;;;;;32.47;16.03;;;;;;;9.30;98.24;63914.91;5072210;28;20185;-54
2024/01/06 10:17:40;;;;;;;29.37;15.03;;;;;;;9.22;97.62;63909.22;5072065;28;20221;-54
2024/01/06 10:20:09;;;;;;;31.30;14.73;;;;;;;9.20;98.59;63907.03;5072098;28;20196;-56
2024/01/06 10:22:36;;;;;;;36.03;15.60;;;;;;;9.23;99.01;63904.75;5071800;28;20227;-57
2024/01/06 10:25:02;;;;;;;31.47;14.90;;;;;;;9.28;99.15;63915.78;5072075;28;20204;-55
2024/01/06 10:27:28;;;;;;;30.87;16.47;;;;;;;9.15;100.00;63898.53;5068630;28;20659;-55
2024/01/06 10:29:53;;;;;;;33.90;16.83;;;;;;;9.32;98.36;63919.63;5071876;28;20189;-55
2024/01/06 10:32:19;;;;;;;25.93;15.50;;;;;;;9.30;96.99;63912.41;5061111;22;20708;-55
2024/01/06 10:34:45;;;;;;;29.17;15.43;;;;;;;9.37;97.22;63922.03;5071945;28;20193;-54
2024/01/06 10:37:11;;;;;;;27.83;14.50;;;;;;;9.50;96.13;63936.22;5068640;28;20209;-54
2024/01/06 10:39:36;;;;;;;25.27;12.30;;;;;;;9.23;95.01;63909.78;5052850;28;20290;-55
2024/01/06 10:42:04;;;;;;;25.20;12.03;;;;;;;9.05;98.02;63890.13;5051829;28;20287;-56
2024/01/06 10:44:32;;;;;;;31.30;12.30;;;;;;;9.20;95.39;63906.50;5033768;28;20663;-54
2024/01/06 10:46:58;;;;;;;22.97;11.17;;;;;;;9.17;98.12;63900.72;5051912;28;20679;-55
2024/01/06 10:49:25;;;;;;;20.60;10.50;;;;;;;9.09;97.47;63890.00;5051544;28;20189;-55
2024/01/06 10:51:52;;;;;;;22.13;10.30;;;;;;;9.26;94.32;63910.53;5051677;28;20279;-56
2024/01/06 10:54:19;;;;;;;24.07;11.57;;;;;;;9.31;93.85;63921.03;5051456;28;20190;-57
2024/01/06 10:56:45;;;;;;;24.60;11.00;;;;;;;9.26;94.25;63910.53;5051394;28;20224;-60
2024/01/06 10:59:12;;;;;;;23.57;11.10;;;;;;;9.35;96.56;63922.91;5049796;28;20214;-60
2024/01/06 11:01:39;;;;;;;19.53;11.60;;;;;;;9.31;96.45;63918.53;5033430;28;20635;-55
2024/01/06 11:04:06;;;;;;;27.20;11.43;;;;;;;9.36;93.50;63921.47;5051572;28;20277;-54
2024/01/06 11:06:33;;;;;;;16.83;8.90;;;;;;;9.40;92.11;63927.81;5051567;28;20197;-54
2024/01/06 11:09:13;;;;;;;19.43;9.00;;;;;;;9.19;93.26;63905.41;5033183;28;20276;-54
2024/01/06 11:11:40;;;;;;;14.23;7.80;;;;;;;9.41;93.47;63926.94;5051462;28;20197;-54
2024/01/06 11:14:25;;;;;;;12.90;7.37;;;;;;;9.43;89.86;63931.66;5033562;28;20259;-54
2024/01/06 11:16:52;;;;;;;12.60;7.10;;;;;;;9.14;93.50;63897.41;5050947;28;20216;-53
2024/01/06 11:19:42;;;;;;;15.07;7.93;;;;;;;9.40;93.25;63928.34;5033290;28;20267;-54
2024/01/06 11:22:26;;;;;;;15.50;7.57;;;;;;;9.74;88.84;63962.47;5050903;28;20239;-58